Time;durP1;ratioP1;P1;durP2;ratioP2;P2;SDS_P1;SDS_P2;PMS_P1;PMS_P2;Temp;Humidity;BMP_temperature;BMP_pressure;BME280_temperature;BME280_humidity;BME280_pressure;Samples;Min_cycle;Max_cycle;Signal;HPM_P1;HPM_P2
2022/11/09 00:00:49;;;;;;;4.03;1.30;;;;;;;;;;5099620;28;20202;-66
2022/11/09 00:03:17;;;;;;;1.30;1.00;;;;;;;;;;5099780;28;20212;-66
2022/11/09 00:05:54;;;;;;;4.30;1.17;;;;;;;;;;5099244;28;20232;-66
2022/11/09 00:08:22;;;;;;;2.57;1.30;;;;;;;;;;5099603;28;20305;-66
2022/11/09 00:10:50;;;;;;;2.57;1.27;;;;;;;;;;5099243;28;20209;-66
2022/11/09 00:13:18;;;;;;;3.07;1.20;;;;;;;;;;5099307;28;20201;-66
2022/11/09 00:15:48;;;;;;;2.90;1.10;;;;;;;;;;5099159;28;20204;-66
2022/11/09 00:18:16;;;;;;;3.50;1.00;;;;;;;;;;5095398;28;20592;-66
2022/11/09 00:20:44;;;;;;;1.17;1.07;;;;;;;;;;5099047;28;20221;-66
2022/11/09 00:23:15;;;;;;;2.17;1.03;;;;;;;;;;5095623;28;20242;-66
2022/11/09 00:25:43;;;;;;;3.37;1.17;;;;;;;;;;5099330;28;20241;-66
2022/11/09 00:28:11;;;;;;;1.93;1.00;;;;;;;;;;5098981;28;20208;-66
2022/11/09 00:30:39;;;;;;;3.67;1.37;;;;;;;;;;5098732;28;20228;-66
2022/11/09 00:33:10;;;;;;;1.73;1.20;;;;;;;;;;5098952;28;20201;-66
2022/11/09 00:35:39;;;;;;;2.50;1.00;;;;;;;;;;5099175;28;20212;-66
2022/11/09 00:38:06;;;;;;;2.63;1.13;;;;;;;;;;5098634;28;20239;-66
2022/11/09 00:40:35;;;;;;;2.47;1.00;;;;;;;;;;5098978;28;20247;-66
2022/11/09 00:43:03;;;;;;;4.20;1.27;;;;;;;;;;5095025;28;20654;-66
2022/11/09 00:45:31;;;;;;;2.40;1.13;;;;;;;;;;5097928;28;20247;-66
2022/11/09 00:47:59;;;;;;;3.47;1.00;;;;;;;;;;5098760;28;20223;-66
2022/11/09 00:50:28;;;;;;;2.30;1.23;;;;;;;;;;5098863;28;20205;-66
2022/11/09 00:52:56;;;;;;;2.53;1.37;;;;;;;;;;5098427;28;20573;-66
2022/11/09 00:55:24;;;;;;;5.40;1.07;;;;;;;;;;5098757;28;20229;-66
2022/11/09 00:57:52;;;;;;;2.80;1.47;;;;;;;;;;5098024;28;20235;-66
2022/11/09 01:00:22;;;;;;;5.30;1.30;;;;;;;;;;5098098;28;20207;-66
2022/11/09 01:02:50;;;;;;;5.57;1.33;;;;;;;;;;5098181;28;20205;-66
2022/11/09 01:05:18;;;;;;;3.57;1.33;;;;;;;;;;5098392;28;20221;-66
2022/11/09 01:07:47;;;;;;;1.63;1.00;;;;;;;;;;5098559;28;20201;-66
2022/11/09 01:10:15;;;;;;;3.07;1.50;;;;;;;;;;5098483;28;20211;-66
2022/11/09 01:12:43;;;;;;;2.33;1.20;;;;;;;;;;5097484;28;20206;-66
2022/11/09 01:15:11;;;;;;;0.97;0.97;;;;;;;;;;5097692;28;20704;-66
2022/11/09 01:17:39;;;;;;;1.17;1.00;;;;;;;;;;5098385;28;20202;-66
2022/11/09 01:20:07;;;;;;;0.80;0.80;;;;;;;;;;5098161;28;20209;-66
2022/11/09 01:22:35;;;;;;;7.93;4.93;;;;;;;;;;5098198;28;20633;-66
2022/11/09 01:25:05;;;;;;;2.20;1.40;;;;;;;;;;5098122;28;20235;-66
2022/11/09 01:27:33;;;;;;;3.77;1.37;;;;;;;;;;5098170;28;20249;-66
2022/11/09 01:30:02;;;;;;;1.73;1.17;;;;;;;;;;5097961;28;20205;-66
2022/11/09 01:32:31;;;;;;;1.63;1.03;;;;;;;;;;5097469;28;20206;-66
2022/11/09 01:34:59;;;;;;;2.87;1.20;;;;;;;;;;5098074;28;20222;-66
2022/11/09 01:37:27;;;;;;;1.50;1.23;;;;;;;;;;5098117;28;20206;-66
2022/11/09 01:39:55;;;;;;;2.60;0.90;;;;;;;;;;5097704;28;20212;-66
2022/11/09 01:42:25;;;;;;;2.63;1.10;;;;;;;;;;5097682;28;20669;-66
2022/11/09 01:45:08;;;;;;;2.67;1.07;;;;;;;;;;5097588;28;20236;-66
2022/11/09 01:47:36;;;;;;;3.60;1.07;;;;;;;;;;5097479;28;20225;-66
2022/11/09 01:50:04;;;;;;;1.43;1.10;;;;;;;;;;5097832;28;20209;-66
2022/11/09 01:52:34;;;;;;;1.20;1.00;;;;;;;;;;5097998;28;20217;-66
2022/11/09 01:55:05;;;;;;;1.90;0.90;;;;;;;;;;5097818;28;20222;-66
2022/11/09 01:57:36;;;;;;;1.80;1.10;;;;;;;;;;5097492;28;20336;-66
2022/11/09 02:00:07;;;;;;;2.10;0.73;;;;;;;;;;5097487;28;20215;-66
2022/11/09 02:02:36;;;;;;;1.63;1.10;;;;;;;;;;5097012;28;20202;-66
2022/11/09 02:05:06;;;;;;;0.80;0.80;;;;;;;;;;5097743;28;20229;-66
2022/11/09 02:07:34;;;;;;;2.10;1.00;;;;;;;;;;5097733;28;20229;-66
2022/11/09 02:10:04;;;;;;;1.20;0.80;;;;;;;;;;5097586;28;20206;-66
2022/11/09 02:12:33;;;;;;;1.10;1.00;;;;;;;;;;5097406;28;20699;-66
2022/11/09 02:15:04;;;;;;;0.97;0.73;;;;;;;;;;5099506;28;20236;-66
2022/11/09 02:17:33;;;;;;;1.63;1.00;;;;;;;;;;5101426;28;20194;-67
2022/11/09 02:20:02;;;;;;;1.47;0.80;;;;;;;;;;5101680;28;20201;-67
2022/11/09 02:22:33;;;;;;;1.13;0.73;;;;;;;;;;5102163;28;20201;-67
2022/11/09 02:25:02;;;;;;;2.53;1.13;;;;;;;;;;5101410;28;20236;-67
2022/11/09 02:27:30;;;;;;;0.80;0.80;;;;;;;;;;5101163;28;20225;-68
2022/11/09 02:29:59;;;;;;;3.10;1.20;;;;;;;;;;5099838;28;20201;-67
2022/11/09 02:32:28;;;;;;;2.90;1.13;;;;;;;;;;5100737;28;20206;-68
2022/11/09 02:34:56;;;;;;;1.10;0.77;;;;;;;;;;5101165;28;20225;-68
2022/11/09 02:37:28;;;;;;;1.70;0.83;;;;;;;;;;5101329;28;20206;-68
2022/11/09 02:39:58;;;;;;;0.80;0.80;;;;;;;;;;5101168;28;20661;-67
2022/11/09 02:42:26;;;;;;;1.60;0.70;;;;;;;;;;5101143;28;20201;-68
2022/11/09 02:44:56;;;;;;;2.87;0.80;;;;;;;;;;5100644;28;20225;-68
2022/11/09 02:47:24;;;;;;;1.77;0.80;;;;;;;;;;5101090;28;20230;-67
2022/11/09 02:49:52;;;;;;;4.07;0.90;;;;;;;;;;5100960;28;20573;-69
2022/11/09 02:52:20;;;;;;;0.73;0.73;;;;;;;;;;5100987;28;20201;-69
2022/11/09 02:54:48;;;;;;;0.80;0.80;;;;;;;;;;5100951;28;20228;-69
2022/11/09 02:57:17;;;;;;;1.57;1.00;;;;;;;;;;5100491;28;20731;-69
2022/11/09 02:59:45;;;;;;;1.27;0.63;;;;;;;;;;5099504;28;20201;-68
2022/11/09 03:02:13;;;;;;;1.17;0.70;;;;;;;;;;5100071;28;20672;-67
2022/11/09 03:04:41;;;;;;;1.17;0.77;;;;;;;;;;5100609;28;20218;-68
2022/11/09 03:07:09;;;;;;;2.37;0.57;;;;;;;;;;5099620;28;20241;-67
2022/11/09 03:09:37;;;;;;;0.63;0.60;;;;;;;;;;5100831;28;20251;-68
2022/11/09 03:14:48;;;;;;;2.27;0.63;;;;;;;;;;5095280;28;20229;-69
2022/11/09 03:17:17;;;;;;;1.70;0.70;;;;;;;;;;5098994;28;20201;-69
2022/11/09 03:19:45;;;;;;;2.33;0.90;;;;;;;;;;5099333;28;20202;-68
2022/11/09 03:22:13;;;;;;;0.93;0.93;;;;;;;;;;5099308;28;20198;-69
2022/11/09 03:24:41;;;;;;;2.90;1.33;;;;;;;;;;5094419;28;20220;-68
2022/11/09 03:27:09;;;;;;;3.17;0.97;;;;;;;;;;5098908;28;20218;-68
2022/11/09 03:29:37;;;;;;;2.67;1.00;;;;;;;;;;5099443;28;20209;-69
2022/11/09 03:32:06;;;;;;;3.13;1.30;;;;;;;;;;5099601;28;20201;-67
2022/11/09 03:34:34;;;;;;;1.20;0.93;;;;;;;;;;5098185;28;20600;-66
2022/11/09 03:37:02;;;;;;;3.13;1.17;;;;;;;;;;5098725;28;20287;-68
2022/11/09 03:39:30;;;;;;;1.97;1.00;;;;;;;;;;5098841;28;20201;-69
2022/11/09 03:41:58;;;;;;;1.07;1.00;;;;;;;;;;5098853;28;20208;-66
2022/11/09 03:44:26;;;;;;;0.90;0.90;;;;;;;;;;5094949;28;20222;-67
2022/11/09 03:46:54;;;;;;;2.03;0.90;;;;;;;;;;5098229;28;20202;-67
2022/11/09 03:49:23;;;;;;;1.80;1.03;;;;;;;;;;5098606;28;20202;-68
2022/11/09 03:51:51;;;;;;;4.37;1.27;;;;;;;;;;5096289;28;20255;-68
2022/11/09 03:54:19;;;;;;;2.07;1.20;;;;;;;;;;5093805;28;20221;-69
2022/11/09 03:56:48;;;;;;;2.60;1.17;;;;;;;;;;5098436;28;20234;-67
2022/11/09 03:59:16;;;;;;;2.73;1.10;;;;;;;;;;5098511;28;20236;-67
2022/11/09 04:01:44;;;;;;;1.47;0.87;;;;;;;;;;5097894;28;20198;-67
2022/11/09 04:04:16;;;;;;;3.03;1.60;;;;;;;;;;5095586;28;20225;-67
2022/11/09 04:06:45;;;;;;;1.37;0.93;;;;;;;;;;5099252;28;20593;-67
2022/11/09 04:09:13;;;;;;;2.20;0.90;;;;;;;;;;5099149;28;20308;-69
2022/11/09 04:11:41;;;;;;;2.43;1.10;;;;;;;;;;5099357;28;20206;-69
2022/11/09 04:14:09;;;;;;;0.90;0.90;;;;;;;;;;5099611;28;20233;-69
2022/11/09 04:16:38;;;;;;;0.60;0.60;;;;;;;;;;5099073;28;20203;-69
2022/11/09 04:19:06;;;;;;;0.80;0.80;;;;;;;;;;5099205;28;20589;-68
2022/11/09 04:21:33;;;;;;;1.03;0.80;;;;;;;;;;5099261;28;20237;-68
2022/11/09 04:24:03;;;;;;;1.87;0.83;;;;;;;;;;5099371;28;20241;-68
2022/11/09 04:26:31;;;;;;;2.43;0.90;;;;;;;;;;5098924;28;20215;-68
2022/11/09 04:28:59;;;;;;;0.80;0.80;;;;;;;;;;5099060;28;20221;-68
2022/11/09 04:31:27;;;;;;;1.90;0.70;;;;;;;;;;5098899;28;20216;-69
2022/11/09 04:33:55;;;;;;;4.10;0.93;;;;;;;;;;5098139;28;20625;-68
2022/11/09 04:36:23;;;;;;;1.23;0.80;;;;;;;;;;5098430;28;20201;-68
2022/11/09 04:38:51;;;;;;;0.73;0.70;;;;;;;;;;5098945;28;20202;-68
2022/11/09 04:41:20;;;;;;;2.80;1.00;;;;;;;;;;5098753;28;20224;-68
2022/11/09 04:43:48;;;;;;;1.03;0.70;;;;;;;;;;5098776;28;20228;-68
2022/11/09 04:46:16;;;;;;;0.70;0.70;;;;;;;;;;5098632;28;20209;-69
2022/11/09 04:48:44;;;;;;;2.20;0.80;;;;;;;;;;5098864;28;20236;-67
2022/11/09 04:51:12;;;;;;;1.30;0.87;;;;;;;;;;5098714;28;20206;-68
2022/11/09 04:53:40;;;;;;;1.60;0.80;;;;;;;;;;5098837;28;20225;-67
2022/11/09 04:56:08;;;;;;;0.83;0.83;;;;;;;;;;5098512;28;20209;-69
2022/11/09 04:58:37;;;;;;;1.83;0.80;;;;;;;;;;5098422;28;20208;-68
2022/11/09 05:01:06;;;;;;;2.00;0.70;;;;;;;;;;5098483;28;20209;-68
2022/11/09 05:03:34;;;;;;;1.00;0.90;;;;;;;;;;5097365;28;20239;-65
2022/11/09 05:06:30;;;;;;;2.40;0.80;;;;;;;;;;5098327;28;20685;-66
2022/11/09 05:08:51;;;;;;;1.03;0.97;;;;;;;;;;5098012;28;20225;-66
2022/11/09 05:11:19;;;;;;;0.63;0.63;;;;;;;;;;5098402;28;20209;-69
2022/11/09 05:13:50;;;;;;;1.17;0.80;;;;;;;;;;5098092;28;20227;-66
2022/11/09 05:16:18;;;;;;;0.60;0.60;;;;;;;;;;5098139;28;20205;-68
2022/11/09 05:18:46;;;;;;;0.80;0.80;;;;;;;;;;5098245;28;20206;-68
2022/11/09 05:21:14;;;;;;;1.63;0.77;;;;;;;;;;5098035;28;20212;-69
2022/11/09 05:23:59;;;;;;;0.80;0.80;;;;;;;;;;5097744;28;20251;-69
2022/11/09 05:26:28;;;;;;;0.70;0.70;;;;;;;;;;5098044;28;20283;-68
2022/11/09 05:28:58;;;;;;;1.13;0.70;;;;;;;;;;5097817;28;20245;-68
2022/11/09 05:31:26;;;;;;;0.73;0.60;;;;;;;;;;5097820;28;20213;-69
2022/11/09 05:33:54;;;;;;;2.20;0.60;;;;;;;;;;5097209;28;20225;-69
2022/11/09 05:36:22;;;;;;;0.80;0.60;;;;;;;;;;5097700;28;20206;-69
2022/11/09 05:38:50;;;;;;;2.67;0.67;;;;;;;;;;5097386;28;20197;-69
2022/11/09 05:41:18;;;;;;;2.70;0.60;;;;;;;;;;5098132;28;20215;-68
2022/11/09 05:43:48;;;;;;;0.60;0.60;;;;;;;;;;5097706;28;20232;-67
2022/11/09 05:46:17;;;;;;;0.53;0.43;;;;;;;;;;5098053;28;20216;-69
2022/11/09 05:48:46;;;;;;;0.67;0.50;;;;;;;;;;5098083;28;20228;-69
2022/11/09 05:51:14;;;;;;;2.80;0.77;;;;;;;;;;5098158;28;20208;-69
2022/11/09 05:53:42;;;;;;;0.67;0.50;;;;;;;;;;5097696;28;20327;-69
2022/11/09 05:56:14;;;;;;;2.27;0.60;;;;;;;;;;5097750;28;20241;-69
2022/11/09 05:58:42;;;;;;;1.90;0.70;;;;;;;;;;5097572;28;20212;-69
2022/11/09 06:01:11;;;;;;;1.53;0.80;;;;;;;;;;5097456;28;20209;-69
2022/11/09 06:03:42;;;;;;;1.00;0.60;;;;;;;;;;5096649;28;20232;-69
2022/11/09 06:06:12;;;;;;;0.70;0.60;;;;;;;;;;5096475;28;20205;-69
2022/11/09 06:08:40;;;;;;;0.60;0.60;;;;;;;;;;5096579;28;20228;-68
2022/11/09 06:11:09;;;;;;;0.73;0.73;;;;;;;;;;5097286;28;20210;-68
2022/11/09 06:13:37;;;;;;;1.13;0.57;;;;;;;;;;5095996;28;20218;-68
2022/11/09 06:16:06;;;;;;;1.73;0.73;;;;;;;;;;5096058;28;20707;-68
2022/11/09 06:18:35;;;;;;;2.30;0.70;;;;;;;;;;5096647;28;20194;-68
2022/11/09 06:21:05;;;;;;;1.20;0.87;;;;;;;;;;5094257;28;20206;-69
2022/11/09 06:23:33;;;;;;;0.87;0.73;;;;;;;;;;5096496;28;20227;-69
2022/11/09 06:26:02;;;;;;;0.70;0.70;;;;;;;;;;5092702;28;20204;-69
2022/11/09 06:28:30;;;;;;;1.87;1.00;;;;;;;;;;5096471;28;20264;-69
2022/11/09 06:30:59;;;;;;;4.80;3.00;;;;;;;;;;5096122;28;20634;-69
2022/11/09 06:33:27;;;;;;;2.13;1.50;;;;;;;;;;5096858;28;20221;-68
2022/11/09 06:35:56;;;;;;;0.97;0.90;;;;;;;;;;5097254;28;20202;-69
2022/11/09 06:38:26;;;;;;;1.13;1.00;;;;;;;;;;5097419;28;20242;-68
2022/11/09 06:40:54;;;;;;;1.73;1.20;;;;;;;;;;5097127;28;20201;-68
2022/11/09 06:43:23;;;;;;;2.63;1.30;;;;;;;;;;5094847;28;20223;-69
2022/11/09 06:45:51;;;;;;;1.90;0.87;;;;;;;;;;5097031;28;20675;-68
2022/11/09 06:48:19;;;;;;;1.97;1.07;;;;;;;;;;5097315;28;20212;-69
2022/11/09 06:50:47;;;;;;;5.00;1.20;;;;;;;;;;5097197;28;20233;-72
2022/11/09 06:53:16;;;;;;;0.87;0.87;;;;;;;;;;5097022;28;20299;-64
2022/11/09 06:55:47;;;;;;;1.13;0.90;;;;;;;;;;5096586;28;20216;-65
2022/11/09 06:58:18;;;;;;;1.30;0.80;;;;;;;;;;5089764;28;20229;-64
2022/11/09 07:00:46;;;;;;;2.23;1.10;;;;;;;;;;5098235;28;20206;-65
2022/11/09 07:03:15;;;;;;;1.50;1.10;;;;;;;;;;5098879;28;20245;-65
2022/11/09 07:05:43;;;;;;;1.90;1.07;;;;;;;;;;5099323;28;20265;-65
2022/11/09 07:08:11;;;;;;;0.80;0.80;;;;;;;;;;5100414;28;20220;-65
2022/11/09 07:10:39;;;;;;;1.50;1.00;;;;;;;;;;5100639;28;20257;-65
2022/11/09 07:13:09;;;;;;;1.07;1.00;;;;;;;;;;5100416;28;20235;-65
2022/11/09 07:15:37;;;;;;;1.20;0.90;;;;;;;;;;5100148;28;20683;-65
2022/11/09 07:18:07;;;;;;;2.23;1.23;;;;;;;;;;5100117;28;20202;-65
2022/11/09 07:20:35;;;;;;;3.50;1.30;;;;;;;;;;5100737;28;20206;-65
2022/11/09 07:23:03;;;;;;;1.83;1.30;;;;;;;;;;5099971;28;20210;-65
2022/11/09 07:25:31;;;;;;;3.80;1.70;;;;;;;;;;5100037;28;20204;-65
2022/11/09 07:28:02;;;;;;;3.27;1.20;;;;;;;;;;5099684;28;20208;-65
2022/11/09 07:30:32;;;;;;;1.73;1.10;;;;;;;;;;5098608;28;20694;-66
2022/11/09 07:33:00;;;;;;;2.97;1.07;;;;;;;;;;5099664;28;20205;-66
2022/11/09 07:35:36;;;;;;;4.50;1.17;;;;;;;;;;5100175;28;20205;-66
2022/11/09 07:38:05;;;;;;;1.90;1.30;;;;;;;;;;5100055;28;20284;-66
2022/11/09 07:40:33;;;;;;;1.17;1.00;;;;;;;;;;5100128;28;20216;-64
2022/11/09 07:43:01;;;;;;;2.27;1.03;;;;;;;;;;5099675;28;20308;-64
2022/11/09 07:45:29;;;;;;;2.93;1.20;;;;;;;;;;5099486;28;20224;-65
2022/11/09 07:48:00;;;;;;;2.37;1.20;;;;;;;;;;5099947;28;20209;-65
2022/11/09 07:50:28;;;;;;;2.47;0.80;;;;;;;;;;5100322;28;20285;-66
2022/11/09 07:52:57;;;;;;;4.40;1.27;;;;;;;;;;5099812;28;20202;-65
2022/11/09 07:55:25;;;;;;;1.37;1.17;;;;;;;;;;5099930;28;20232;-66
2022/11/09 07:57:56;;;;;;;0.93;0.93;;;;;;;;;;5098977;28;20634;-67
2022/11/09 08:00:25;;;;;;;3.37;1.07;;;;;;;;;;5098258;28;20204;-68
2022/11/09 08:02:53;;;;;;;1.17;0.83;;;;;;;;;;5097065;28;20237;-68
2022/11/09 08:05:23;;;;;;;1.03;0.97;;;;;;;;;;5099085;28;20225;-68
2022/11/09 08:07:54;;;;;;;1.00;0.90;;;;;;;;;;5099671;28;20236;-68
2022/11/09 08:10:22;;;;;;;2.17;1.00;;;;;;;;;;5097588;28;20222;-67
2022/11/09 08:12:54;;;;;;;1.27;1.20;;;;;;;;;;5098470;28;20247;-68
2022/11/09 08:15:22;;;;;;;1.50;1.40;;;;;;;;;;5096639;28;20292;-65
2022/11/09 08:17:51;;;;;;;1.83;1.20;;;;;;;;;;5099542;28;20591;-66
2022/11/09 08:20:19;;;;;;;2.40;1.43;;;;;;;;;;5096573;28;20225;-66
2022/11/09 08:22:49;;;;;;;1.80;0.90;;;;;;;;;;5099235;28;20240;-67
2022/11/09 08:25:17;;;;;;;1.90;1.20;;;;;;;;;;5097017;28;20214;-67
2022/11/09 08:27:45;;;;;;;2.37;1.27;;;;;;;;;;5099414;28;20233;-68
2022/11/09 08:30:14;;;;;;;3.67;1.00;;;;;;;;;;5098590;28;20305;-68
2022/11/09 08:32:43;;;;;;;1.77;1.27;;;;;;;;;;5098130;28;20236;-67
2022/11/09 08:35:15;;;;;;;2.63;1.20;;;;;;;;;;5099452;28;20305;-68
2022/11/09 08:37:43;;;;;;;1.23;1.13;;;;;;;;;;5097539;28;20227;-67
2022/11/09 08:40:13;;;;;;;2.60;1.23;;;;;;;;;;5093249;28;20653;-67
2022/11/09 08:42:41;;;;;;;2.07;1.40;;;;;;;;;;5084998;28;20197;-68
2022/11/09 08:45:10;;;;;;;6.53;1.33;;;;;;;;;;5096861;28;20587;-70
2022/11/09 08:47:38;;;;;;;5.60;1.60;;;;;;;;;;5098832;28;20587;-68
2022/11/09 08:50:07;;;;;;;3.20;1.90;;;;;;;;;;5098256;28;20302;-71
2022/11/09 08:52:35;;;;;;;2.97;1.30;;;;;;;;;;5098014;28;20653;-68
2022/11/09 08:55:03;;;;;;;2.40;1.33;;;;;;;;;;5098282;28;20239;-68
2022/11/09 08:57:33;;;;;;;1.60;1.40;;;;;;;;;;5097477;28;20225;-68
2022/11/09 09:00:01;;;;;;;1.67;1.57;;;;;;;;;;5081876;28;20202;-68
2022/11/09 09:02:29;;;;;;;2.00;1.50;;;;;;;;;;5087044;28;20204;-68
2022/11/09 09:04:57;;;;;;;2.77;1.47;;;;;;;;;;5098032;28;20224;-68
2022/11/09 09:07:25;;;;;;;2.43;1.40;;;;;;;;;;5097957;28;20649;-67
2022/11/09 09:09:53;;;;;;;2.83;1.67;;;;;;;;;;5095125;28;20221;-68
2022/11/09 09:12:21;;;;;;;2.87;1.73;;;;;;;;;;5097705;28;20206;-68
2022/11/09 09:14:50;;;;;;;1.63;1.53;;;;;;;;;;5096745;28;20221;-68
2022/11/09 09:17:18;;;;;;;2.87;1.87;;;;;;;;;;5098000;28;20200;-69
2022/11/09 09:19:46;;;;;;;3.70;1.87;;;;;;;;;;5095184;28;20240;-69
2022/11/09 09:22:16;;;;;;;3.27;2.20;;;;;;;;;;5096988;28;20219;-68
2022/11/09 09:24:44;;;;;;;7.23;2.10;;;;;;;;;;5093810;28;20786;-69
2022/11/09 09:27:13;;;;;;;5.17;2.37;;;;;;;;;;5096990;28;20205;-68
2022/11/09 09:29:41;;;;;;;2.70;2.30;;;;;;;;;;5096296;28;20569;-68
2022/11/09 09:32:10;;;;;;;3.80;2.23;;;;;;;;;;5096238;28;20712;-67
2022/11/09 09:34:38;;;;;;;5.60;2.40;;;;;;;;;;5096958;28;20218;-68
2022/11/09 09:37:06;;;;;;;4.27;2.63;;;;;;;;;;5094155;28;20209;-68
2022/11/09 09:39:34;;;;;;;6.97;2.43;;;;;;;;;;5096773;28;20212;-67
2022/11/09 09:42:05;;;;;;;4.13;2.30;;;;;;;;;;5094122;28;20190;-68
2022/11/09 09:44:36;;;;;;;2.23;1.90;;;;;;;;;;5095779;28;20217;-68
2022/11/09 09:47:07;;;;;;;2.67;1.53;;;;;;;;;;5097123;28;20544;-68
2022/11/09 09:49:39;;;;;;;4.13;1.90;;;;;;;;;;5097366;28;20536;-69
2022/11/09 09:52:14;;;;;;;4.60;1.70;;;;;;;;;;5095258;28;20228;-68
2022/11/09 09:54:44;;;;;;;4.63;1.50;;;;;;;;;;5097129;28;20216;-68
2022/11/09 09:57:15;;;;;;;1.73;1.60;;;;;;;;;;5097194;28;20225;-68
2022/11/09 09:59:44;;;;;;;2.43;1.60;;;;;;;;;;5094152;28;20198;-69
2022/11/09 10:02:18;;;;;;;2.93;1.33;;;;;;;;;;5096287;28;20200;-69
2022/11/09 10:04:48;;;;;;;3.10;1.43;;;;;;;;;;5095242;28;20213;-68
2022/11/09 10:07:19;;;;;;;2.77;1.63;;;;;;;;;;5094437;28;20213;-68
2022/11/09 10:09:53;;;;;;;3.47;1.43;;;;;;;;;;5094536;28;20202;-68
2022/11/09 10:12:28;;;;;;;3.77;1.47;;;;;;;;;;5096855;28;20574;-67
2022/11/09 10:15:02;;;;;;;1.63;1.43;;;;;;;;;;5096788;28;20565;-69
2022/11/09 10:17:36;;;;;;;5.00;2.27;;;;;;;;;;5095436;28;20201;-69
2022/11/09 10:20:14;;;;;;;2.97;1.40;;;;;;;;;;5094271;28;20649;-69
2022/11/09 10:22:48;;;;;;;1.60;1.50;;;;;;;;;;5097581;28;20206;-69
2022/11/09 10:25:19;;;;;;;2.00;1.70;;;;;;;;;;5096858;28;20218;-70
2022/11/09 10:28:10;;;;;;;2.97;1.60;;;;;;;;;;5093512;28;20220;-69
2022/11/09 10:30:40;;;;;;;2.37;1.43;;;;;;;;;;5096498;28;20258;-70
2022/11/09 10:33:14;;;;;;;2.60;1.30;;;;;;;;;;5095776;28;20205;-70
2022/11/09 10:35:47;;;;;;;8.43;1.93;;;;;;;;;;5096342;28;20667;-69
2022/11/09 10:38:16;;;;;;;2.63;1.70;;;;;;;;;;5100124;28;20698;-68
2022/11/09 10:40:49;;;;;;;4.40;1.93;;;;;;;;;;5100027;28;20190;-68
2022/11/09 10:43:17;;;;;;;3.53;1.93;;;;;;;;;;5100047;28;20562;-69
2022/11/09 10:45:46;;;;;;;2.50;1.90;;;;;;;;;;5099720;28;20204;-68
2022/11/09 10:48:14;;;;;;;2.93;2.17;;;;;;;;;;5099554;28;20202;-69
2022/11/09 10:50:48;;;;;;;3.07;2.10;;;;;;;;;;5099398;28;20568;-67
2022/11/09 10:53:18;;;;;;;6.53;2.73;;;;;;;;;;5097743;28;20197;-66
2022/11/09 10:55:53;;;;;;;3.07;2.17;;;;;;;;;;5100113;28;20204;-64
2022/11/09 10:58:25;;;;;;;3.97;2.43;;;;;;;;;;5097365;28;20197;-65
2022/11/09 11:00:58;;;;;;;2.30;2.10;;;;;;;;;;5099492;28;20225;-68
2022/11/09 11:03:28;;;;;;;4.10;2.10;;;;;;;;;;5099650;28;20244;-67
2022/11/09 11:05:59;;;;;;;3.73;2.43;;;;;;;;;;5098748;28;20202;-69
2022/11/09 11:08:35;;;;;;;5.67;2.67;;;;;;;;;;5100544;28;20194;-67
2022/11/09 11:11:16;;;;;;;2.87;2.23;;;;;;;;;;5096714;28;20232;-64
2022/11/09 11:14:10;;;;;;;3.50;2.83;;;;;;;;;;5097948;28;20221;-64
2022/11/09 11:16:39;;;;;;;7.57;2.90;;;;;;;;;;5098786;28;20220;-65
2022/11/09 11:19:25;;;;;;;4.80;2.80;;;;;;;;;;5099648;28;20220;-65
2022/11/09 11:22:17;;;;;;;5.23;3.87;;;;;;;;;;5098437;28;20205;-67
2022/11/09 11:24:48;;;;;;;3.47;2.67;;;;;;;;;;5094412;28;20221;-64
2022/11/09 11:27:18;;;;;;;2.97;2.00;;;;;;;;;;5099459;28;20201;-67
2022/11/09 11:29:47;;;;;;;3.37;2.53;;;;;;;;;;5097425;28;20198;-65
2022/11/09 11:32:18;;;;;;;4.40;2.23;;;;;;;;;;5098417;28;20277;-65
2022/11/09 11:34:46;;;;;;;3.27;2.30;;;;;;;;;;5092715;28;20251;-65
2022/11/09 11:37:37;;;;;;;4.87;2.00;;;;;;;;;;5096310;28;20748;-64
2022/11/09 11:40:06;;;;;;;3.40;2.17;;;;;;;;;;5098886;28;20205;-66
2022/11/09 11:42:41;;;;;;;3.63;2.33;;;;;;;;;;5098451;28;20194;-65
2022/11/09 11:45:14;;;;;;;3.77;2.13;;;;;;;;;;5098355;28;20574;-67
2022/11/09 11:48:11;;;;;;;6.33;2.40;;;;;;;;;;5097650;28;20286;-66
2022/11/09 11:50:41;;;;;;;3.17;2.60;;;;;;;;;;5097102;28;20201;-66
2022/11/09 11:53:15;;;;;;;7.13;4.07;;;;;;;;;;5098243;28;20221;-66
2022/11/09 11:56:04;;;;;;;9.43;4.07;;;;;;;;;;5098226;28;20670;-68
2022/11/09 11:58:42;;;;;;;6.83;3.93;;;;;;;;;;5092642;28;20918;-68
2022/11/09 12:01:16;;;;;;;7.97;4.20;;;;;;;;;;5095497;28;20209;-66
2022/11/09 12:03:52;;;;;;;7.77;4.03;;;;;;;;;;5098439;28;20228;-69
2022/11/09 12:06:41;;;;;;;6.10;3.90;;;;;;;;;;5097494;28;20671;-67
2022/11/09 12:09:18;;;;;;;7.37;3.97;;;;;;;;;;5092075;28;20562;-67
2022/11/09 12:11:52;;;;;;;5.20;3.30;;;;;;;;;;5098270;28;20225;-66
2022/11/09 12:14:26;;;;;;;5.63;3.00;;;;;;;;;;5098682;28;20227;-67
2022/11/09 12:16:58;;;;;;;3.30;3.00;;;;;;;;;;5092048;28;20206;-67
2022/11/09 12:19:44;;;;;;;2.93;2.30;;;;;;;;;;5098883;28;20198;-67
2022/11/09 12:22:16;;;;;;;3.10;2.70;;;;;;;;;;5098914;28;20201;-68
2022/11/09 12:24:52;;;;;;;5.77;3.20;;;;;;;;;;5098764;28;20312;-68
2022/11/09 12:27:27;;;;;;;5.17;3.07;;;;;;;;;;5098909;28;20193;-67
2022/11/09 12:30:03;;;;;;;7.23;3.40;;;;;;;;;;5096974;28;20197;-66
2022/11/09 12:32:35;;;;;;;4.17;3.37;;;;;;;;;;5097577;28;20642;-66
2022/11/09 12:35:23;;;;;;;4.77;3.67;;;;;;;;;;5097579;28;20226;-65
2022/11/09 12:37:54;;;;;;;6.17;3.90;;;;;;;;;;5097299;28;20204;-65
2022/11/09 12:40:25;;;;;;;7.07;4.07;;;;;;;;;;5098833;28;20206;-66
2022/11/09 12:42:55;;;;;;;9.90;4.53;;;;;;;;;;5098595;28;20206;-66
2022/11/09 12:45:27;;;;;;;5.83;4.37;;;;;;;;;;5098394;28;20230;-65
2022/11/09 12:47:58;;;;;;;7.03;4.90;;;;;;;;;;5098776;28;20205;-65
2022/11/09 12:50:26;;;;;;;8.87;4.93;;;;;;;;;;5098888;28;20206;-65
2022/11/09 12:52:54;;;;;;;11.90;5.83;;;;;;;;;;5098646;28;20225;-64
2022/11/09 12:55:27;;;;;;;17.33;9.13;;;;;;;;;;5098842;28;20233;-65
2022/11/09 12:57:54;;;;;;;11.03;8.30;;;;;;;;;;5097586;28;20237;-65
2022/11/09 13:00:47;;;;;;;8.83;4.43;;;;;;;;;;5097927;28;20254;-65
2022/11/09 13:03:19;;;;;;;4.93;3.80;;;;;;;;;;5098520;28;20201;-65
2022/11/09 13:05:48;;;;;;;7.47;3.80;;;;;;;;;;5097636;28;20232;-65
2022/11/09 13:08:18;;;;;;;5.67;3.17;;;;;;;;;;5098115;28;20557;-64
2022/11/09 13:11:07;;;;;;;5.47;3.63;;;;;;;;;;5098651;28;20202;-64
2022/11/09 13:13:35;;;;;;;6.77;2.87;;;;;;;;;;5097894;28;20233;-65
2022/11/09 13:16:04;;;;;;;4.87;2.90;;;;;;;;;;5098152;28;20220;-64
2022/11/09 13:18:47;;;;;;;2.97;2.53;;;;;;;;;;5098298;28;20201;-65
2022/11/09 13:21:30;;;;;;;3.63;3.07;;;;;;;;;;5098300;28;20208;-64
2022/11/09 13:24:11;;;;;;;4.20;2.60;;;;;;;;;;5095931;28;20705;-64
2022/11/09 13:27:06;;;;;;;4.73;2.77;;;;;;;;;;5097986;28;20210;-65
2022/11/09 13:29:48;;;;;;;4.00;2.63;;;;;;;;;;5082577;28;20209;-64
2022/11/09 13:32:24;;;;;;;3.87;2.93;;;;;;;;;;5098127;28;20234;-66
2022/11/09 13:34:53;;;;;;;3.77;2.70;;;;;;;;;;5098182;28;20221;-64
2022/11/09 13:37:51;;;;;;;3.97;2.47;;;;;;;;;;5095477;28;20557;-65
2022/11/09 13:40:37;;;;;;;4.00;2.70;;;;;;;;;;5097301;28;20201;-65
2022/11/09 13:43:06;;;;;;;3.63;2.30;;;;;;;;;;5084275;28;20684;-65
2022/11/09 13:45:37;;;;;;;6.30;2.50;;;;;;;;;;5097312;28;20288;-67
2022/11/09 13:48:06;;;;;;;5.43;2.40;;;;;;;;;;5097641;28;20209;-67
2022/11/09 13:50:34;;;;;;;4.07;2.33;;;;;;;;;;5097968;28;20211;-67
2022/11/09 13:53:03;;;;;;;4.40;2.97;;;;;;;;;;5097665;28;20234;-67
2022/11/09 13:55:32;;;;;;;4.47;2.13;;;;;;;;;;5097761;28;20201;-69
2022/11/09 13:58:02;;;;;;;3.53;2.37;;;;;;;;;;5097299;28;20247;-68
2022/11/09 14:00:30;;;;;;;3.20;2.53;;;;;;;;;;5097692;28;20287;-70
2022/11/09 14:03:02;;;;;;;4.60;3.37;;;;;;;;;;5097400;28;20212;-68
2022/11/09 14:05:31;;;;;;;5.60;3.23;;;;;;;;;;5096331;28;20929;-68
2022/11/09 14:08:01;;;;;;;5.30;2.90;;;;;;;;;;5097474;28;20202;-68
2022/11/09 14:10:38;;;;;;;3.07;2.77;;;;;;;;;;5100965;28;20204;-68
2022/11/09 14:13:18;;;;;;;3.17;2.40;;;;;;;;;;5099142;28;20556;-68
2022/11/09 14:15:49;;;;;;;2.50;2.30;;;;;;;;;;5099716;28;20198;-68
2022/11/09 14:18:26;;;;;;;3.57;2.97;;;;;;;;;;5101897;28;20208;-68
2022/11/09 14:20:56;;;;;;;3.63;2.30;;;;;;;;;;5102126;28;20233;-68
2022/11/09 14:23:28;;;;;;;4.13;1.97;;;;;;;;;;5099383;28;20304;-68
2022/11/09 14:25:56;;;;;;;2.17;1.73;;;;;;;;;;5102081;28;20202;-68
2022/11/09 14:28:26;;;;;;;2.87;2.07;;;;;;;;;;5099398;28;20197;-69
2022/11/09 14:30:54;;;;;;;2.13;1.90;;;;;;;;;;5101554;28;20656;-70
2022/11/09 14:33:25;;;;;;;2.23;2.00;;;;;;;;;;5100587;28;20217;-69
2022/11/09 14:35:55;;;;;;;2.10;1.70;;;;;;;;;;5100955;28;20216;-68
2022/11/09 14:38:24;;;;;;;2.30;2.00;;;;;;;;;;5099013;28;20201;-65
2022/11/09 14:40:53;;;;;;;2.03;1.63;;;;;;;;;;5101217;28;20659;-68
2022/11/09 14:43:25;;;;;;;2.27;1.97;;;;;;;;;;5101049;28;20239;-67
2022/11/09 14:45:54;;;;;;;2.73;2.17;;;;;;;;;;5101187;28;20205;-68
2022/11/09 14:48:23;;;;;;;2.40;2.20;;;;;;;;;;5098566;28;20212;-66
2022/11/09 14:50:54;;;;;;;4.83;2.10;;;;;;;;;;5100481;28;20608;-67
2022/11/09 14:53:25;;;;;;;2.27;2.10;;;;;;;;;;5099777;28;20222;-65
2022/11/09 14:55:54;;;;;;;2.83;2.30;;;;;;;;;;5100158;28;20616;-66
2022/11/09 14:58:22;;;;;;;2.10;1.90;;;;;;;;;;5100482;28;20649;-66
2022/11/09 15:01:08;;;;;;;3.20;2.30;;;;;;;;;;5099948;28;20653;-68
2022/11/09 15:03:36;;;;;;;5.23;3.00;;;;;;;;;;5099240;28;20696;-65
2022/11/09 15:06:07;;;;;;;4.90;3.23;;;;;;;;;;5096808;28;20208;-66